Portada
METAR-TAF:

METAR-TAF

Aeroports :

Al-Kuwait, Kuwait

latitud: 29-13N, longitud: 047-59E, altitud: 55 m

Observació

L'informe es va fer fa 1 hora i 8 minuts, a les 14:00 UTC
Vent 12 kt del Est/Sud-Est
Temperatura 19°C
Humitat 64%
Pressió 1015 hPa
Visibilitat: 8000 m
Cel clar

METAR: OKBK 231400Z 12012KT 8000 SKC 19/12 Q1015 NOSIG

Hora: 18:08 (15:08 UTC)

Pronòstic

L'informe es va fer fa 4 hores i 23 minuts, a les 10:45 UTC
Pronòstic vàlid del 23 a les 12 UTC al 24 a les 18 UTC
Vent 10 kt del Sud-Est amb ràfegues de 20 kt
Visibilitat: 7000 m
Escasses núvols a una alçada de 4000 ft
Cel ennuvolat a una alçada de 8000 ft
Temporalment
l' 23 a les 12 UTC al 23 a les 20 UTC
Visibilitat: 4000 m
pluja

TAF: OKBK 231045Z 2312/2418 14010G20KT 7000 FEW040 BKN080 TEMPO 2312/2320 4000 -RA

Observacions i pronòstics meteorològics de més de 4000 aeroports (METAR i TAF).

Les estacions disponibles són els punts grocs i vermells al mapa.

Posi el ratolí al punt desitjat per veure el nom de l'estació.

Feu clic per veure les observacions i els pronòstics meteorològics.

Per canviar el mapa: feu clic els botons verds amb una creu de color negre per apropar; al botó verd amb un guió per allunyar la imatge; o en les fletxes verdes per a mapes adjacents.


METAR-TAF: